Time;durP1;ratioP1;P1;durP2;ratioP2;P2;SDS_P1;SDS_P2;PMS_P1;PMS_P2;Temp;Humidity;BMP_temperature;BMP_pressure;BME280_temperature;BME280_humidity;BME280_pressure;Samples;Min_cycle;Max_cycle;Signal;HPM_P1;HPM_P2
2021/04/02 00:00:50;;;;;;;2.63;1.53;;;14.90;65.50;13.90;96625.00;;;;5076318;28;20211;-69
2021/04/02 00:03:39;;;;;;;4.47;2.47;;;14.80;66.40;13.70;96625.00;;;;5087343;28;20210;-69
2021/04/02 00:06:27;;;;;;;8.57;2.47;;;14.70;67.40;13.60;96620.00;;;;5086656;28;20226;-69
2021/04/02 00:09:16;;;;;;;6.67;2.47;;;14.50;67.30;13.50;96617.00;;;;5087524;28;20224;-69
2021/04/02 00:12:05;;;;;;;11.57;2.10;;;14.40;68.30;13.40;96623.00;;;;5087038;28;20714;-69
2021/04/02 00:14:54;;;;;;;3.77;2.30;;;14.30;68.60;13.30;96617.00;;;;5087829;28;20203;-69
2021/04/02 00:17:42;;;;;;;4.17;2.27;;;14.20;70.20;13.10;96609.00;;;;5086855;28;20210;-69
2021/04/02 00:20:30;;;;;;;6.70;2.20;;;14.10;71.20;13.00;96615.00;;;;5086317;28;20203;-69
2021/04/02 00:23:18;;;;;;;6.23;2.00;;;13.90;71.40;12.90;96612.00;;;;5087949;28;20206;-69
2021/04/02 00:26:08;;;;;;;4.90;2.33;;;13.80;71.70;12.40;96603.00;;;;5082410;28;20215;-69
2021/04/02 00:28:57;;;;;;;3.63;2.07;;;13.60;74.50;11.90;96600.00;;;;5080885;28;20223;-69
2021/04/02 00:31:46;;;;;;;4.10;2.27;;;13.30;76.70;11.90;96605.00;;;;5086965;28;20227;-70
2021/04/02 00:34:33;;;;;;;4.10;2.90;;;13.10;77.80;11.90;96595.00;;;;5087846;28;20590;-69
2021/04/02 00:37:21;;;;;;;7.20;2.90;;;12.90;79.00;11.80;96590.00;;;;5087299;28;20203;-69
2021/04/02 00:40:21;;;;;;;5.00;2.50;;;12.80;80.70;11.60;96578.00;;;;5079981;28;20206;-68
2021/04/02 00:43:09;;;;;;;5.53;2.20;;;12.60;82.30;11.60;96580.00;;;;5079707;28;20199;-68
2021/04/02 00:45:57;;;;;;;9.40;4.80;;;12.50;83.60;11.10;96573.00;;;;5075050;28;20210;-69
2021/04/02 00:48:48;;;;;;;2.80;2.30;;;12.30;85.60;11.00;96579.00;;;;5086223;28;20631;-70
2021/04/02 00:51:36;;;;;;;5.97;2.57;;;12.10;88.40;11.30;96579.00;;;;5071722;28;20232;-69
2021/04/02 00:54:24;;;;;;;5.17;2.80;;;12.00;89.90;11.40;96567.00;;;;5087796;28;20214;-69
2021/04/02 00:57:12;;;;;;;2.70;2.33;;;12.00;90.70;11.60;96560.00;;;;5086107;28;20600;-69
2021/04/02 01:00:00;;;;;;;3.30;2.07;;;12.10;90.70;11.50;96566.00;;;;5081683;28;20685;-69
2021/04/02 01:02:48;;;;;;;6.37;2.10;;;12.20;90.30;11.50;96567.00;;;;5079730;28;20227;-69
2021/04/02 01:05:42;;;;;;;3.87;2.27;;;12.20;90.70;11.10;96563.00;;;;5076937;28;20423;-69
2021/04/02 01:08:32;;;;;;;6.20;2.10;;;12.10;91.00;10.90;96563.00;;;;5073618;28;20222;-68
2021/04/02 01:11:24;;;;;;;8.50;2.63;;;12.00;91.60;11.00;96560.00;;;;5085239;28;20227;-69
2021/04/02 01:14:11;;;;;;;2.73;2.03;;;11.90;92.40;10.90;96548.00;;;;5086252;28;20214;-69
2021/04/02 01:16:59;;;;;;;4.33;2.00;;;11.80;93.00;10.80;96555.00;;;;5085921;28;20211;-69
2021/04/02 01:19:53;;;;;;;5.23;2.13;;;11.70;93.40;10.80;96554.00;;;;5085261;28;20215;-69
2021/04/02 01:22:45;;;;;;;3.63;2.40;;;11.80;93.70;10.50;96560.00;;;;5086330;28;20685;-68
2021/04/02 01:25:49;;;;;;;8.80;3.00;;;11.60;95.30;10.50;96566.00;;;;5071843;28;20204;-69
2021/04/02 01:29:13;;;;;;;5.80;2.33;;;11.50;96.10;10.40;96556.00;;;;5086037;28;20223;-68
2021/04/02 01:32:04;;;;;;;3.73;2.07;;;11.40;97.40;10.50;96557.00;;;;5086628;28;20575;-69
2021/04/02 01:34:58;;;;;;;3.37;2.20;;;11.30;97.80;10.50;96563.00;;;;5085336;28;20199;-68
2021/04/02 01:37:52;;;;;;;5.40;2.57;;;11.30;98.40;10.40;96559.00;;;;5086396;28;20230;-68
2021/04/02 01:40:43;;;;;;;3.90;2.60;;;11.30;98.90;10.60;96559.00;;;;5081957;28;20205;-68
2021/04/02 01:43:37;;;;;;;4.53;2.83;;;11.30;99.90;10.60;96556.00;;;;5080426;28;20230;-69
2021/04/02 01:46:28;;;;;;;7.30;2.07;;;11.30;99.90;10.60;96549.00;;;;5086232;28;20698;-69
2021/04/02 01:49:17;;;;;;;5.93;2.53;;;11.30;99.90;10.50;96547.00;;;;5085997;28;20227;-69
2021/04/02 01:52:07;;;;;;;6.03;2.40;;;11.30;99.90;10.60;96550.00;;;;5085183;28;20705;-69
2021/04/02 01:54:57;;;;;;;4.53;1.80;;;11.30;99.90;10.60;96557.00;;;;5085010;28;20299;-69
2021/04/02 01:57:48;;;;;;;3.63;1.77;;;11.30;99.90;10.00;96547.00;;;;5086758;28;20650;-69
2021/04/02 02:00:43;;;;;;;4.97;2.60;;;11.20;99.90;10.30;96538.00;;;;5078180;28;20220;-69
2021/04/02 02:03:34;;;;;;;3.80;2.03;;;11.10;99.90;10.40;96536.00;;;;5083694;28;20203;-68
2021/04/02 02:06:24;;;;;;;5.13;2.53;;;11.10;99.90;10.70;96545.00;;;;5084913;28;20211;-68
2021/04/02 02:09:16;;;;;;;14.00;2.80;;;11.20;99.90;10.10;96532.00;;;;5084244;28;20230;-68
2021/04/02 02:12:08;;;;;;;4.30;2.27;;;11.10;99.90;10.30;96539.00;;;;5085766;28;20222;-69
2021/04/02 02:14:58;;;;;;;4.83;2.63;;;11.10;99.90;10.30;96528.00;;;;5071753;28;20698;-69
2021/04/02 02:17:51;;;;;;;3.13;1.67;;;11.10;99.90;10.00;96528.00;;;;5085871;28;20219;-69
2021/04/02 02:20:43;;;;;;;7.83;2.57;;;11.00;99.90;10.10;96533.00;;;;5084970;28;20781;-68
2021/04/02 02:23:32;;;;;;;3.23;2.07;;;10.90;99.90;10.10;96529.00;;;;5085728;28;20210;-69
2021/04/02 02:26:20;;;;;;;6.83;2.07;;;10.90;99.90;10.20;96535.00;;;;5072352;28;20211;-68
2021/04/02 02:29:08;;;;;;;6.07;3.30;;;10.90;99.90;10.10;96524.00;;;;5084309;28;20223;-69
2021/04/02 02:31:56;;;;;;;9.47;2.77;;;10.90;99.90;10.20;96530.00;;;;5084993;28;20227;-68
2021/04/02 02:34:44;;;;;;;4.83;2.60;;;10.90;99.90;10.00;96525.00;;;;5083398;28;20210;-68
2021/04/02 02:37:34;;;;;;;5.63;2.53;;;10.90;99.90;9.90;96533.00;;;;5071922;28;20211;-68
2021/04/02 02:40:26;;;;;;;6.80;2.77;;;10.80;99.90;10.10;96525.00;;;;5084291;28;20203;-69
2021/04/02 02:43:16;;;;;;;6.13;3.57;;;10.80;99.90;10.30;96520.00;;;;5084832;28;20215;-68
2021/04/02 02:46:04;;;;;;;5.83;2.23;;;10.80;99.90;10.20;96525.00;;;;5085760;28;20210;-69
2021/04/02 02:48:58;;;;;;;10.77;2.93;;;10.90;99.90;10.20;96519.00;;;;5084938;28;20231;-68
2021/04/02 02:51:47;;;;;;;10.53;3.13;;;10.90;99.90;10.20;96522.00;;;;5071661;28;20235;-68
2021/04/02 02:54:37;;;;;;;8.40;2.53;;;10.90;99.90;10.30;96522.00;;;;5085089;28;20199;-68
2021/04/02 02:57:26;;;;;;;5.57;2.47;;;10.90;99.90;10.00;96521.00;;;;5086018;28;20203;-68
2021/04/02 03:00:18;;;;;;;8.60;2.50;;;10.90;99.90;9.90;96520.00;;;;5084850;28;20203;-69
2021/04/02 03:03:13;;;;;;;10.50;3.07;;;10.80;99.90;10.00;96505.00;;;;5085866;28;21014;-68
2021/04/02 03:06:01;;;;;;;5.10;2.23;;;10.80;99.90;10.40;96506.00;;;;5084155;28;20211;-69
2021/04/02 03:08:53;;;;;;;9.90;2.93;;;10.90;99.90;10.60;96513.00;;;;5084266;28;20230;-69
2021/04/02 03:11:44;;;;;;;3.77;1.90;;;11.00;99.90;10.60;96510.00;;;;5084533;28;20694;-68
2021/04/02 03:14:35;;;;;;;5.50;2.20;;;11.10;99.90;10.60;96514.00;;;;5086255;28;20214;-68
2021/04/02 03:17:25;;;;;;;9.07;2.60;;;11.20;99.90;10.60;96512.00;;;;5076726;28;20219;-69
2021/04/02 03:20:14;;;;;;;5.57;4.53;;;11.20;99.90;10.60;96508.00;;;;5077171;28;20278;-69
2021/04/02 03:23:04;;;;;;;9.33;2.43;;;11.20;99.90;10.50;96508.00;;;;5087871;28;20203;-69
2021/04/02 03:25:52;;;;;;;10.40;2.37;;;11.20;99.90;10.50;96507.00;;;;5074535;28;20258;-69
2021/04/02 03:28:43;;;;;;;7.83;2.10;;;11.20;99.90;10.40;96502.00;;;;5081966;28;20227;-69
2021/04/02 03:31:38;;;;;;;8.53;2.50;;;11.20;99.90;10.30;96493.00;;;;5077392;28;20227;-69
2021/04/02 03:34:27;;;;;;;5.17;3.20;;;11.20;99.90;10.40;96500.00;;;;5085639;28;20204;-69
2021/04/02 03:37:15;;;;;;;7.43;2.77;;;11.10;99.90;10.40;96506.00;;;;5087647;28;20203;-69
2021/04/02 03:40:08;;;;;;;4.60;2.37;;;11.10;99.90;10.20;96497.00;;;;5074311;28;20200;-69
2021/04/02 03:43:00;;;;;;;8.57;2.13;;;11.10;99.90;10.20;96505.00;;;;5067886;28;20207;-69
2021/04/02 03:45:50;;;;;;;5.17;2.17;;;11.00;99.90;10.30;96509.00;;;;5066291;28;20204;-69
2021/04/02 03:48:41;;;;;;;6.47;2.93;;;11.00;99.90;10.30;96507.00;;;;5066863;28;20220;-68
2021/04/02 03:51:33;;;;;;;8.87;2.33;;;11.00;99.90;10.40;96491.00;;;;5066234;28;20227;-68
2021/04/02 03:54:21;;;;;;;7.30;2.50;;;11.70;99.90;10.40;96492.00;;;;5067064;28;20215;-68
2021/04/02 03:57:12;;;;;;;5.77;2.43;;;11.10;99.90;10.30;96502.00;;;;5067218;28;20204;-70
2021/04/02 04:00:08;;;;;;;7.30;2.53;;;11.10;99.90;10.30;96500.00;;;;5066123;28;20675;-67
2021/04/02 04:02:59;;;;;;;7.70;3.30;;;11.00;99.90;10.20;96495.00;;;;5084127;28;20207;-68
2021/04/02 04:05:49;;;;;;;12.90;2.83;;;11.00;99.90;10.30;96489.00;;;;5075926;28;20713;-67
2021/04/02 04:08:38;;;;;;;7.13;2.73;;;11.00;99.90;10.30;96497.00;;;;5074739;28;20242;-68
2021/04/02 04:11:30;;;;;;;7.93;3.10;;;11.00;99.90;10.30;96504.00;;;;5086223;28;20285;-68
2021/04/02 04:14:20;;;;;;;3.40;2.03;;;11.00;99.90;10.30;96503.00;;;;5081259;28;20199;-69
2021/04/02 04:17:12;;;;;;;4.17;2.07;;;11.00;99.90;10.30;96515.00;;;;5080124;28;20210;-69
2021/04/02 04:20:04;;;;;;;12.23;2.47;;;11.00;99.90;10.20;96501.00;;;;5077540;28;20593;-69
2021/04/02 04:22:53;;;;;;;10.13;3.00;;;11.00;99.90;10.10;96491.00;;;;5084990;28;20203;-68
2021/04/02 04:25:42;;;;;;;7.37;2.97;;;10.90;99.90;10.10;96495.00;;;;5070356;28;20215;-67
2021/04/02 04:28:31;;;;;;;6.03;2.50;;;10.90;99.90;10.10;96503.00;;;;5086595;28;20226;-67
2021/04/02 04:31:20;;;;;;;7.63;2.73;;;10.90;99.90;9.80;96510.00;;;;5078196;28;20223;-69
2021/04/02 04:34:11;;;;;;;4.50;2.33;;;10.80;99.90;9.30;96495.00;;;;5067293;28;20207;-69
2021/04/02 04:37:02;;;;;;;11.77;2.87;;;10.60;99.90;9.20;96492.00;;;;5068639;28;20196;-69
2021/04/02 04:39:52;;;;;;;7.63;2.67;;;10.40;99.90;9.30;96501.00;;;;5090160;28;20219;-68
2021/04/02 04:42:46;;;;;;;6.20;2.60;;;10.30;99.90;9.50;96507.00;;;;5091677;28;20611;-68
2021/04/02 04:45:34;;;;;;;3.77;2.00;;;10.20;99.90;9.50;96503.00;;;;5073886;28;20214;-67
2021/04/02 04:48:22;;;;;;;6.77;4.57;;;10.20;99.90;9.20;96499.00;;;;5084469;28;20720;-68
2021/04/02 04:51:11;;;;;;;8.10;2.70;;;10.20;99.90;9.30;96495.00;;;;5064605;28;20263;-68
2021/04/02 04:54:01;;;;;;;7.60;2.90;;;10.10;99.90;9.30;96492.00;;;;5072876;28;20213;-68
2021/04/02 04:56:53;;;;;;;8.50;2.07;;;10.10;99.90;9.50;96502.00;;;;5082222;28;20204;-68
2021/04/02 04:59:43;;;;;;;5.57;2.30;;;10.10;99.90;9.60;96503.00;;;;5079013;28;20219;-68
2021/04/02 05:02:32;;;;;;;6.10;2.50;;;10.20;99.90;9.70;96500.00;;;;5085393;28;20218;-68
2021/04/02 05:05:27;;;;;;;7.23;3.07;;;10.30;99.90;9.60;96507.00;;;;5085549;28;20203;-68
2021/04/02 05:08:20;;;;;;;8.83;3.37;;;10.30;99.90;9.40;96511.00;;;;5085871;28;20220;-68
2021/04/02 05:11:13;;;;;;;5.67;2.97;;;10.30;99.90;9.30;96516.00;;;;5086377;28;20237;-69
2021/04/02 05:14:02;;;;;;;6.87;2.70;;;10.30;99.90;9.30;96505.00;;;;5086435;28;20215;-68
2021/04/02 05:16:52;;;;;;;3.97;2.07;;;10.20;99.90;9.70;96516.00;;;;5084520;28;20737;-68
2021/04/02 05:19:41;;;;;;;9.83;2.20;;;10.20;99.90;9.80;96524.00;;;;5065885;28;20849;-69
2021/04/02 05:22:29;;;;;;;8.23;2.80;;;10.40;99.90;10.00;96512.00;;;;5086031;28;20198;-68
2021/04/02 05:25:17;;;;;;;4.57;2.20;;;10.50;99.90;9.90;96510.00;;;;5074066;28;20905;-68
2021/04/02 05:28:07;;;;;;;8.00;1.90;;;10.60;99.90;9.90;96523.00;;;;5072771;28;20231;-68
2021/04/02 05:30:55;;;;;;;7.00;3.17;;;10.60;99.90;9.60;96515.00;;;;5089146;28;20210;-68
2021/04/02 05:33:43;;;;;;;6.27;3.30;;;10.60;99.90;9.60;96515.00;;;;5090410;28;20200;-68
2021/04/02 05:36:30;;;;;;;11.33;4.73;;;10.50;99.90;9.60;96522.00;;;;5083944;28;20207;-68
2021/04/02 05:39:18;;;;;;;13.13;3.30;;;10.50;99.90;9.70;96530.00;;;;5084230;28;20624;-67
2021/04/02 05:42:08;;;;;;;6.87;3.30;;;10.40;99.90;9.70;96521.00;;;;5084209;28;20669;-68
2021/04/02 05:44:59;;;;;;;5.93;3.50;;;10.40;99.90;9.80;96523.00;;;;5079792;28;20206;-68
2021/04/02 05:47:52;;;;;;;5.10;2.77;;;10.50;99.90;9.90;96521.00;;;;5072837;28;20642;-68
2021/04/02 05:50:40;;;;;;;8.90;3.40;;;10.50;99.90;9.80;96529.00;;;;5086612;28;20198;-68
2021/04/02 05:53:29;;;;;;;7.70;2.83;;;10.50;99.90;9.60;96526.00;;;;5085168;28;20239;-68
2021/04/02 05:56:17;;;;;;;4.90;2.20;;;10.50;99.90;9.70;96531.00;;;;5084682;28;20223;-68
2021/04/02 05:59:05;;;;;;;9.83;2.63;;;10.50;99.90;9.80;96533.00;;;;5085371;28;20250;-68
2021/04/02 06:01:55;;;;;;;7.17;3.30;;;10.50;99.90;9.90;96528.00;;;;5077448;28;20199;-68
2021/04/02 06:04:44;;;;;;;3.70;2.43;;;10.50;99.90;10.00;96527.00;;;;5086554;28;21059;-68
2021/04/02 06:07:33;;;;;;;5.23;2.60;;;10.60;99.90;10.20;96525.00;;;;5083989;28;20773;-68
2021/04/02 06:10:21;;;;;;;5.80;2.17;;;10.60;99.90;10.20;96530.00;;;;5084146;28;20207;-68
2021/04/02 06:13:10;;;;;;;8.57;2.87;;;10.70;99.90;10.10;96523.00;;;;5084547;28;20215;-68
2021/04/02 06:15:58;;;;;;;5.50;2.83;;;10.80;99.90;10.10;96515.00;;;;5084661;28;20618;-68
2021/04/02 06:18:46;;;;;;;5.77;3.97;;;10.80;99.90;10.20;96527.00;;;;5073708;28;20231;-68
2021/04/02 06:21:46;;;;;;;4.00;2.40;;;10.90;99.90;10.30;96527.00;;;;5065163;28;20200;-68
2021/04/02 06:24:40;;;;;;;6.40;2.37;;;10.90;99.90;10.30;96540.00;;;;5082743;28;20195;-68
2021/04/02 06:27:30;;;;;;;5.50;3.63;;;10.90;99.90;10.40;96537.00;;;;5084874;28;20203;-68
2021/04/02 06:30:19;;;;;;;7.93;2.80;;;11.00;99.90;10.50;96540.00;;;;5083879;28;20207;-68
2021/04/02 06:33:09;;;;;;;6.13;2.37;;;11.10;99.90;10.70;96535.00;;;;5084311;28;20269;-68
2021/04/02 06:35:58;;;;;;;5.37;2.57;;;11.10;99.90;10.90;96548.00;;;;5082679;28;20414;-69
2021/04/02 06:38:48;;;;;;;7.23;2.50;;;11.30;99.90;10.90;96535.00;;;;5083780;28;20215;-68
2021/04/02 06:41:36;;;;;;;7.03;2.90;;;11.50;99.90;11.10;96538.00;;;;5073260;28;20203;-69
2021/04/02 06:44:29;;;;;;;11.00;3.17;;;11.50;99.90;11.10;96538.00;;;;5072283;28;20282;-68
2021/04/02 06:47:16;;;;;;;9.33;3.00;;;11.60;99.90;11.40;96550.00;;;;5070565;28;20199;-69
2021/04/02 06:50:19;;;;;;;17.63;2.90;;;11.70;99.90;11.60;96547.00;;;;5082632;28;20202;-68
2021/04/02 06:53:08;;;;;;;11.17;3.23;;;11.90;99.90;11.60;96552.00;;;;5081678;28;20257;-68
2021/04/02 06:55:58;;;;;;;5.17;2.47;;;12.00;99.90;11.80;96553.00;;;;5090546;28;20211;-68
2021/04/02 06:58:47;;;;;;;6.77;2.50;;;12.10;99.90;12.00;96552.00;;;;5082217;28;20311;-68
2021/04/02 07:01:37;;;;;;;8.33;2.87;;;12.30;99.90;12.10;96553.00;;;;5081022;28;20210;-68
2021/04/02 07:04:26;;;;;;;5.27;3.10;;;12.40;99.90;12.20;96553.00;;;;5081814;28;20772;-68
2021/04/02 07:07:15;;;;;;;8.80;4.83;;;12.50;99.90;12.20;96556.00;;;;5076538;28;20214;-68
2021/04/02 07:10:06;;;;;;;6.97;3.10;;;12.70;99.90;12.30;96558.00;;;;5076717;28;20239;-67
2021/04/02 07:12:57;;;;;;;9.60;2.83;;;12.80;99.90;12.50;96553.00;;;;5067002;28;20228;-68
2021/04/02 07:15:45;;;;;;;11.40;3.13;;;12.90;99.90;12.70;96563.00;;;;5066691;28;20204;-68
2021/04/02 07:18:34;;;;;;;15.23;4.90;;;13.00;99.90;12.80;96569.00;;;;5073613;28;20234;-68
2021/04/02 07:21:22;;;;;;;8.60;3.17;;;13.10;99.90;12.90;96568.00;;;;5082728;28;20203;-67
2021/04/02 07:24:12;;;;;;;7.77;2.77;;;13.30;99.90;12.70;96561.00;;;;5078720;28;20195;-68
2021/04/02 07:27:00;;;;;;;11.77;3.87;;;13.30;99.90;12.70;96564.00;;;;5068013;28;20207;-68
2021/04/02 07:29:48;;;;;;;11.93;3.43;;;13.30;99.90;12.80;96573.00;;;;5067136;28;20235;-69
2021/04/02 07:32:40;;;;;;;8.70;3.00;;;13.30;99.90;12.80;96572.00;;;;5068071;28;20226;-68
2021/04/02 07:35:28;;;;;;;8.67;3.30;;;13.30;99.90;12.90;96568.00;;;;5079828;28;20211;-68
2021/04/02 07:38:16;;;;;;;18.47;4.50;;;13.40;99.90;13.00;96566.00;;;;5084596;28;20581;-68
2021/04/02 07:41:10;;;;;;;6.50;2.97;;;13.50;99.90;13.00;96574.00;;;;5081703;28;20207;-68
2021/04/02 07:43:59;;;;;;;10.07;3.63;;;13.50;99.90;13.00;96568.00;;;;5082414;28;20235;-68
2021/04/02 07:47:07;;;;;;;13.23;4.50;;;13.60;99.90;13.20;96578.00;;;;5072441;28;20211;-68
2021/04/02 07:49:58;;;;;;;6.87;3.57;;;13.60;99.90;13.20;96575.00;;;;5066721;28;20216;-68
2021/04/02 07:52:52;;;;;;;9.33;3.83;;;13.70;99.90;13.30;96570.00;;;;5070454;28;20215;-67
2021/04/02 07:55:55;;;;;;;13.33;3.90;;;13.80;99.90;13.50;96573.00;;;;5067199;28;20628;-68
2021/04/02 07:58:49;;;;;;;6.07;3.40;;;13.90;99.90;13.40;96580.00;;;;5074386;28;20304;-68
2021/04/02 08:01:38;;;;;;;4.70;3.10;;;14.00;99.90;13.70;96580.00;;;;5080389;28;20203;-68
2021/04/02 08:04:37;;;;;;;5.70;3.03;;;14.00;99.90;14.00;96582.00;;;;5068656;28;20208;-67
2021/04/02 08:07:33;;;;;;;5.93;2.93;;;14.20;99.90;14.30;96576.00;;;;5078576;28;20196;-68
2021/04/02 08:10:21;;;;;;;10.27;2.93;;;14.40;99.90;14.60;96580.00;;;;5069103;28;20210;-68
2021/04/02 08:13:17;;;;;;;10.90;3.57;;;14.60;99.90;14.70;96583.00;;;;5080335;28;20576;-68
2021/04/02 08:16:42;;;;;;;7.70;4.00;;;14.90;99.90;14.90;96585.00;;;;5068488;28;20220;-68
2021/04/02 08:19:32;;;;;;;9.37;3.80;;;15.10;99.90;15.00;96586.00;;;;5072318;28;21117;-68
2021/04/02 08:22:21;;;;;;;14.00;4.13;;;15.30;99.90;15.10;96579.00;;;;5072084;28;20210;-68
2021/04/02 08:25:12;;;;;;;9.57;2.73;;;15.40;99.90;15.30;96586.00;;;;5087344;28;20204;-68
2021/04/02 08:28:01;;;;;;;6.13;3.13;;;15.50;99.90;15.40;96582.00;;;;5081225;28;20230;-68
2021/04/02 08:30:51;;;;;;;4.10;2.60;;;15.60;99.90;15.60;96575.00;;;;5068276;28;20675;-68
2021/04/02 08:33:40;;;;;;;7.20;3.10;;;15.80;99.90;15.60;96574.00;;;;5083861;28;20223;-68
2021/04/02 08:36:30;;;;;;;6.90;3.33;;;15.90;99.30;15.70;96575.00;;;;5076673;28;20211;-68
2021/04/02 08:39:23;;;;;;;12.70;4.10;;;16.00;97.90;15.50;96589.00;;;;5073488;28;21179;-69
2021/04/02 08:42:12;;;;;;;7.80;3.17;;;16.00;97.10;15.10;96579.00;;;;5066140;28;20208;-69
2021/04/02 08:45:08;;;;;;;9.00;3.27;;;15.90;98.80;15.20;96578.00;;;;5078967;28;20209;-68
2021/04/02 08:47:56;;;;;;;9.30;4.03;;;15.90;99.60;15.10;96565.00;;;;5075825;28;20277;-68
2021/04/02 08:50:49;;;;;;;11.80;3.07;;;15.80;99.00;15.20;96577.00;;;;5082158;28;20579;-68
2021/04/02 08:53:41;;;;;;;8.33;2.93;;;15.80;98.30;15.00;96582.00;;;;5088286;28;20240;-68
2021/04/02 08:56:31;;;;;;;8.23;3.70;;;15.70;96.50;15.10;96576.00;;;;5083959;28;20207;-68
2021/04/02 08:59:20;;;;;;;8.83;3.30;;;15.70;97.90;15.20;96574.00;;;;5066712;28;20746;-68
2021/04/02 09:02:09;;;;;;;8.17;3.23;;;15.70;98.30;15.10;96567.00;;;;5065576;28;20204;-68
2021/04/02 09:04:57;;;;;;;8.13;3.90;;;15.70;99.00;15.10;96564.00;;;;5066729;28;20211;-69
2021/04/02 09:07:46;;;;;;;6.00;2.77;;;15.70;98.80;15.40;96564.00;;;;5085406;28;20191;-68
2021/04/02 09:10:37;;;;;;;8.97;2.77;;;15.80;98.40;16.30;96557.00;;;;5073356;28;20203;-69
2021/04/02 09:13:29;;;;;;;10.13;3.87;;;16.00;98.90;16.90;96559.00;;;;5084437;28;20718;-67
2021/04/02 09:16:20;;;;;;;9.43;2.60;;;16.50;98.40;17.10;96541.00;;;;5083258;28;20199;-67
2021/04/02 09:19:09;;;;;;;11.63;2.83;;;16.90;94.40;17.80;96541.00;;;;5072572;28;20219;-67
2021/04/02 09:22:09;;;;;;;8.33;4.83;;;17.40;91.80;18.80;96537.00;;;;5076929;28;20202;-68
2021/04/02 09:24:58;;;;;;;6.07;4.73;;;17.90;91.60;19.00;96552.00;;;;5085160;28;20207;-68
2021/04/02 09:27:46;;;;;;;6.97;3.07;;;18.50;88.30;19.30;96523.00;;;;5085477;28;20226;-68
2021/04/02 09:30:34;;;;;;;6.63;3.47;;;18.90;78.70;18.80;96517.00;;;;5084942;28;20207;-70
2021/04/02 09:33:23;;;;;;;10.73;4.27;;;19.20;65.90;19.10;96508.00;;;;5084727;28;20230;-68
2021/04/02 09:36:13;;;;;;;9.60;4.60;;;19.30;63.30;19.20;96530.00;;;;5073850;28;20195;-69
2021/04/02 09:39:11;;;;;;;6.77;3.53;;;19.50;60.90;19.10;96508.00;;;;5071275;28;20230;-70
2021/04/02 09:42:03;;;;;;;9.17;4.17;;;19.60;58.50;19.40;96513.00;;;;5086467;28;20211;-69
2021/04/02 09:44:51;;;;;;;12.10;3.80;;;19.60;58.40;20.30;96524.00;;;;5081580;28;20584;-69
2021/04/02 09:47:40;;;;;;;7.90;3.80;;;20.00;59.40;18.90;96497.00;;;;5074058;28;20212;-69
2021/04/02 09:50:28;;;;;;;7.50;3.77;;;19.90;56.70;18.80;96502.00;;;;5083512;28;20211;-69
2021/04/02 09:53:16;;;;;;;7.03;4.13;;;19.70;59.00;19.30;96531.00;;;;5088703;28;20219;-68
2021/04/02 09:56:05;;;;;;;9.20;4.33;;;19.70;60.60;19.40;96528.00;;;;5067399;28;20678;-68
2021/04/02 09:58:54;;;;;;;11.03;3.03;;;19.70;60.90;19.60;96525.00;;;;5075702;28;20227;-68
2021/04/02 10:01:43;;;;;;;6.30;3.00;;;19.90;61.80;19.40;96531.00;;;;5083328;28;20199;-68
2021/04/02 10:04:31;;;;;;;3.73;2.80;;;19.90;62.60;19.30;96539.00;;;;5075160;28;20196;-69
2021/04/02 10:07:19;;;;;;;4.30;3.83;;;19.90;64.00;19.10;96530.00;;;;5086116;28;20199;-69
2021/04/02 10:10:09;;;;;;;6.80;3.40;;;19.80;64.30;18.60;96537.00;;;;5076840;28;20204;-69
2021/04/02 10:12:56;;;;;;;6.60;3.17;;;19.60;62.50;17.90;96536.00;;;;5076879;28;20224;-69
2021/04/02 10:15:45;;;;;;;5.50;3.30;;;19.20;61.30;17.80;96536.00;;;;5092344;28;20218;-69
2021/04/02 10:18:33;;;;;;;6.00;2.80;;;18.80;61.20;17.90;96526.00;;;;5073549;28;20265;-68
2021/04/02 10:21:23;;;;;;;7.17;2.97;;;18.70;62.10;17.50;96530.00;;;;5078116;28;20627;-69
2021/04/02 10:24:11;;;;;;;5.83;3.03;;;18.50;63.30;17.60;96523.00;;;;5083965;28;20198;-69
2021/04/02 10:27:00;;;;;;;11.50;4.03;;;18.40;62.90;17.90;96528.00;;;;5068896;28;20204;-68
2021/04/02 10:29:48;;;;;;;9.57;3.17;;;18.30;64.80;18.00;96518.00;;;;5070749;28;20223;-69
2021/04/02 10:32:36;;;;;;;6.90;3.10;;;18.40;65.40;18.80;96492.00;;;;5083069;28;20227;-69
2021/04/02 10:35:27;;;;;;;6.43;3.13;;;18.60;66.20;19.20;96520.00;;;;5087199;28;20593;-68
2021/04/02 10:38:14;;;;;;;13.50;3.20;;;18.90;66.70;19.10;96511.00;;;;5069055;28;20223;-69
2021/04/02 10:41:03;;;;;;;8.57;3.50;;;19.10;65.60;19.10;96506.00;;;;5082397;28;20207;-69
2021/04/02 10:43:51;;;;;;;6.27;3.10;;;18.80;63.60;20.10;96479.00;;;;5073040;28;20553;-69
2021/04/02 10:46:39;;;;;;;7.47;3.87;;;19.60;64.20;20.40;96509.00;;;;5074079;28;20220;-68
2021/04/02 10:49:28;;;;;;;6.00;3.33;;;20.00;63.50;19.80;96517.00;;;;5069691;28;20228;-68
2021/04/02 10:52:15;;;;;;;6.10;4.87;;;20.10;63.00;19.60;96499.00;;;;5067942;28;20208;-68
2021/04/02 10:55:05;;;;;;;8.23;5.37;;;20.10;61.50;19.40;96500.00;;;;5069318;28;20191;-68
2021/04/02 10:57:54;;;;;;;7.03;3.77;;;20.00;61.10;19.70;96471.00;;;;5078750;28;20223;-68
2021/04/02 11:00:42;;;;;;;10.10;3.03;;;20.00;61.90;20.60;96473.00;;;;5086957;28;20589;-69
2021/04/02 11:03:30;;;;;;;5.63;3.10;;;20.30;61.80;20.30;96489.00;;;;5083500;28;20281;-69
2021/04/02 11:06:19;;;;;;;6.83;3.30;;;20.50;60.30;20.20;96490.00;;;;5079794;28;20219;-68
2021/04/02 11:09:09;;;;;;;10.57;3.43;;;20.50;60.50;20.70;96446.00;;;;5077349;28;20219;-69
2021/04/02 11:11:56;;;;;;;6.67;3.43;;;20.70;60.40;20.60;96493.00;;;;5069812;28;20200;-69
2021/04/02 11:14:44;;;;;;;5.20;3.37;;;20.80;60.90;20.70;96495.00;;;;5067537;28;20215;-69
2021/04/02 11:17:33;;;;;;;11.40;3.80;;;20.90;60.20;20.10;96497.00;;;;5077194;28;20215;-69
2021/04/02 11:20:25;;;;;;;6.83;4.00;;;20.80;59.00;19.70;96494.00;;;;5072683;28;20203;-69
2021/04/02 11:23:17;;;;;;;7.53;4.00;;;20.60;59.20;19.70;96485.00;;;;5067748;28;20204;-69
2021/04/02 11:26:07;;;;;;;7.10;4.00;;;20.40;59.50;19.60;96478.00;;;;5068565;28;20686;-69
2021/04/02 11:28:55;;;;;;;7.93;4.63;;;20.20;59.50;19.90;96474.00;;;;5068728;28;20223;-69
2021/04/02 11:31:43;;;;;;;9.43;5.03;;;20.20;59.40;19.70;96474.00;;;;5074656;28;20204;-69
2021/04/02 11:34:31;;;;;;;10.30;4.80;;;20.20;59.80;19.50;96462.00;;;;5066362;28;20610;-68
2021/04/02 11:37:20;;;;;;;9.10;5.67;;;20.00;60.50;20.50;96405.00;;;;5084118;28;20288;-68
2021/04/02 11:40:12;;;;;;;8.10;3.63;;;20.20;60.20;21.80;96415.00;;;;5078298;28;20659;-67
2021/04/02 11:42:59;;;;;;;7.87;4.10;;;20.80;60.60;21.00;96408.00;;;;5077428;28;20195;-68
2021/04/02 11:45:48;;;;;;;7.50;3.87;;;21.40;58.40;20.70;96389.00;;;;5085542;28;20199;-69
2021/04/02 11:48:45;;;;;;;10.20;4.87;;;21.30;57.90;20.80;96381.00;;;;5086260;28;20223;-68
2021/04/02 11:51:34;;;;;;;11.43;4.00;;;21.40;55.90;21.80;96379.00;;;;5083149;28;20266;-69
2021/04/02 11:54:21;;;;;;;13.27;4.27;;;21.70;55.40;21.70;96384.00;;;;5079862;28;20223;-68
2021/04/02 11:57:13;;;;;;;11.33;4.57;;;22.00;53.00;23.00;96387.00;;;;5068214;28;20703;-68
2021/04/02 12:00:04;;;;;;;6.73;3.13;;;22.50;52.00;23.40;96435.00;;;;5065697;28;20231;-68
2021/04/02 12:02:51;;;;;;;11.50;4.00;;;23.00;51.80;22.70;96419.00;;;;5067601;28;20203;-68
2021/04/02 12:05:39;;;;;;;10.90;3.97;;;23.00;53.10;21.70;96362.00;;;;5067756;28;20924;-68
2021/04/02 12:08:28;;;;;;;8.93;3.60;;;23.00;51.80;24.10;96365.00;;;;5067602;28;20231;-68
2021/04/02 12:11:16;;;;;;;4.70;3.80;;;23.30;52.80;25.20;96370.00;;;;5073539;28;20225;-69
2021/04/02 12:14:06;;;;;;;7.30;3.43;;;24.00;53.20;25.90;96363.00;;;;5066162;28;20483;-69
2021/04/02 12:16:54;;;;;;;8.57;3.17;;;24.70;51.70;26.60;96353.00;;;;5067049;28;20223;-69
2021/04/02 12:19:42;;;;;;;11.53;3.53;;;25.40;51.00;27.20;96358.00;;;;5081516;28;20599;-69
2021/04/02 12:22:29;;;;;;;11.43;4.07;;;26.00;49.70;26.70;96407.00;;;;5085140;28;20207;-68
2021/04/02 12:25:17;;;;;;;10.23;4.33;;;26.50;48.70;25.00;96334.00;;;;5083295;28;20213;-69
2021/04/02 12:28:06;;;;;;;13.13;4.83;;;26.60;46.50;25.80;96339.00;;;;5066655;28;20739;-69
2021/04/02 12:30:54;;;;;;;8.57;4.77;;;26.50;45.30;26.00;96336.00;;;;5075436;28;20200;-68
2021/04/02 12:33:42;;;;;;;9.03;5.50;;;26.40;44.90;24.50;96387.00;;;;5084857;28;20216;-68
2021/04/02 12:36:32;;;;;;;11.63;5.17;;;25.90;43.60;23.20;96314.00;;;;5066221;28;20234;-71